createdAt,value
2023-04-30T00:00:44.322Z,12.10
2023-04-30T00:03:50.097Z,19.52
2023-04-30T00:06:58.198Z,18.63
2023-04-30T00:10:03.632Z,17.10
2023-04-30T00:13:10.893Z,13.65
2023-04-30T00:16:16.491Z,13.10
2023-04-30T00:19:22.186Z,15.18
2023-04-30T00:22:30.058Z,12.02
2023-04-30T00:25:35.830Z,11.20
2023-04-30T00:28:41.247Z,10.32
2023-04-30T00:31:46.719Z,10.82
2023-04-30T00:34:52.173Z,10.80
2023-04-30T00:38:01.023Z,11.88
2023-04-30T00:41:06.560Z,10.90
2023-04-30T00:44:12.156Z,10.98
2023-04-30T00:47:17.663Z,10.68
2023-04-30T00:50:23.219Z,11.13
2023-04-30T00:53:31.186Z,10.82
2023-04-30T00:56:37.214Z,11.40
2023-04-30T00:59:42.763Z,11.25
2023-04-30T01:02:48.265Z,10.40
2023-04-30T01:05:54.320Z,12.25
2023-04-30T01:09:02.566Z,11.23
2023-04-30T01:12:12.907Z,11.23
2023-04-30T01:15:22.536Z,11.70
2023-04-30T01:18:31.676Z,11.68
2023-04-30T01:21:38.642Z,12.20
2023-04-30T01:24:58.144Z,11.95
2023-04-30T01:28:10.584Z,13.05
2023-04-30T01:31:17.485Z,12.95
2023-04-30T01:34:23.072Z,13.13
2023-04-30T01:37:33.952Z,12.18
2023-04-30T01:40:44.681Z,12.25
2023-04-30T01:43:56.420Z,12.88
2023-04-30T01:47:06.733Z,14.18
2023-04-30T01:50:19.251Z,12.93
2023-04-30T01:53:25.564Z,13.73
2023-04-30T01:56:32.694Z,12.68
2023-04-30T01:59:42.482Z,11.95
2023-04-30T02:02:48.285Z,12.05
2023-04-30T02:05:54.309Z,12.38
2023-04-30T02:09:03.607Z,13.45
2023-04-30T02:12:09.460Z,14.68
2023-04-30T02:15:17.650Z,13.00
2023-04-30T02:18:23.304Z,13.43
2023-04-30T02:21:28.713Z,12.68
2023-04-30T02:24:34.197Z,13.52
2023-04-30T02:27:39.294Z,12.90
2023-04-30T02:30:47.275Z,14.15
2023-04-30T02:33:55.281Z,14.15
2023-04-30T02:37:01.361Z,14.15
2023-04-30T02:40:07.077Z,14.85
2023-04-30T02:43:12.441Z,14.07
2023-04-30T02:46:20.665Z,13.77
2023-04-30T02:52:31.144Z,13.88
2023-04-30T02:55:36.340Z,14.88
2023-04-30T02:58:43.157Z,15.35
2023-04-30T03:01:51.508Z,14.50
2023-04-30T03:04:56.619Z,14.25
2023-04-30T03:08:01.919Z,16.02
2023-04-30T03:11:07.278Z,15.27
2023-04-30T03:14:12.843Z,16.23
2023-04-30T03:17:20.677Z,17.00
2023-04-30T03:20:26.423Z,15.15
2023-04-30T03:23:31.918Z,16.10
2023-04-30T03:26:37.259Z,16.45
2023-04-30T03:29:42.926Z,17.58
2023-04-30T03:32:50.978Z,16.73
2023-04-30T03:35:56.570Z,17.88
2023-04-30T03:39:01.932Z,18.02
2023-04-30T03:42:07.229Z,17.95
2023-04-30T03:45:12.769Z,18.08
2023-04-30T03:48:21.147Z,17.00
2023-04-30T03:51:28.756Z,18.73
2023-04-30T03:54:34.433Z,20.30
2023-04-30T03:57:41.096Z,20.02
2023-04-30T04:00:46.696Z,19.92
2023-04-30T04:03:54.636Z,20.98
2023-04-30T04:07:00.449Z,21.52
2023-04-30T04:10:05.889Z,22.02
2023-04-30T04:13:12.120Z,23.70
2023-04-30T04:16:17.325Z,23.85
2023-04-30T04:19:25.629Z,24.95
2023-04-30T04:22:30.825Z,25.30
2023-04-30T04:25:36.384Z,24.40
2023-04-30T04:28:42.585Z,24.25
2023-04-30T04:31:49.587Z,21.30
2023-04-30T04:34:57.925Z,21.08
2023-04-30T04:38:03.361Z,21.70
2023-04-30T04:41:09.372Z,20.20
2023-04-30T04:44:15.198Z,19.05
2023-04-30T04:47:22.195Z,18.65
2023-04-30T04:50:30.180Z,17.13
2023-04-30T04:53:35.493Z,17.58
2023-04-30T04:56:40.941Z,18.08
2023-04-30T04:59:46.918Z,15.48
2023-04-30T05:02:52.722Z,15.38
2023-04-30T05:06:01.166Z,16.10
2023-04-30T05:09:09.470Z,14.90
2023-04-30T05:15:20.106Z,14.45
2023-04-30T05:18:25.583Z,14.52
2023-04-30T05:21:33.569Z,14.45
2023-04-30T05:24:39.116Z,14.48
2023-04-30T05:27:44.325Z,12.57
2023-04-30T05:30:49.761Z,13.98
2023-04-30T05:33:55.188Z,13.52
2023-04-30T05:37:03.218Z,13.25
2023-04-30T05:40:09.558Z,13.35
2023-04-30T05:43:15.078Z,11.95
2023-04-30T05:46:20.653Z,9.85
2023-04-30T05:49:26.342Z,9.43
2023-04-30T05:52:34.505Z,9.70
2023-04-30T05:55:39.790Z,9.45
2023-04-30T05:58:45.484Z,9.45
2023-04-30T06:01:50.716Z,9.75
2023-04-30T06:04:56.353Z,8.73
2023-04-30T06:08:04.239Z,8.70
2023-04-30T06:11:09.395Z,7.78
2023-04-30T06:14:14.954Z,6.78
2023-04-30T06:17:20.703Z,7.10
2023-04-30T06:20:27.762Z,6.13
2023-04-30T06:23:36.058Z,6.20
2023-04-30T06:26:41.280Z,5.57
2023-04-30T06:29:46.865Z,6.10
2023-04-30T06:32:52.332Z,6.15
2023-04-30T06:35:57.789Z,5.93
2023-04-30T06:39:06.111Z,6.10
2023-04-30T06:42:11.570Z,5.53
2023-04-30T06:45:17.410Z,5.75
2023-04-30T06:48:22.815Z,4.85
2023-04-30T06:51:28.261Z,5.65
2023-04-30T06:54:36.562Z,5.10
2023-04-30T06:57:41.766Z,4.55
2023-04-30T07:00:47.044Z,4.78
2023-04-30T07:03:53.031Z,4.30
2023-04-30T07:06:58.966Z,4.80
2023-04-30T07:10:07.304Z,4.40
2023-04-30T07:13:12.632Z,4.35
2023-04-30T07:16:21.327Z,4.22
2023-04-30T07:19:27.584Z,4.15
2023-04-30T07:22:33.182Z,4.07
2023-04-30T07:25:41.260Z,4.18
2023-04-30T07:28:46.438Z,3.50
2023-04-30T07:31:52.312Z,3.50
2023-04-30T07:34:58.149Z,4.07
2023-04-30T07:38:03.468Z,3.80
2023-04-30T07:41:11.518Z,3.38
2023-04-30T07:44:17.123Z,3.22
2023-04-30T07:47:22.989Z,3.90
2023-04-30T07:50:29.057Z,3.40
2023-04-30T07:53:34.653Z,3.17
2023-04-30T07:56:43.127Z,2.78
2023-04-30T07:59:51.372Z,2.72
2023-04-30T08:02:58.697Z,2.88
2023-04-30T08:06:04.384Z,2.58
2023-04-30T08:09:09.645Z,2.85
2023-04-30T08:12:17.436Z,2.70
2023-04-30T08:15:23.988Z,3.08
2023-04-30T08:18:29.328Z,2.40
2023-04-30T08:21:34.836Z,2.60
2023-04-30T08:24:40.449Z,2.85
2023-04-30T08:27:48.798Z,2.45
2023-04-30T08:30:54.358Z,2.30
2023-04-30T08:33:59.769Z,2.38
2023-04-30T08:37:04.965Z,1.90
2023-04-30T08:40:12.722Z,2.20
2023-04-30T08:43:21.802Z,2.38
2023-04-30T08:46:27.386Z,1.90
2023-04-30T08:49:33.484Z,1.80
2023-04-30T08:52:38.947Z,2.05
2023-04-30T08:55:45.061Z,1.70
2023-04-30T08:58:53.016Z,2.13
2023-04-30T09:01:58.866Z,1.85
2023-04-30T09:05:04.341Z,2.30
2023-04-30T09:08:10.715Z,1.98
2023-04-30T09:11:27.088Z,2.10
2023-04-30T09:14:40.501Z,2.05
2023-04-30T09:17:48.359Z,2.25
2023-04-30T09:20:58.382Z,2.40
2023-04-30T09:24:04.403Z,3.05
2023-04-30T09:27:18.700Z,2.60
2023-04-30T09:30:35.985Z,2.15
2023-04-30T09:33:48.931Z,2.70
2023-04-30T09:36:57.935Z,2.60
2023-04-30T09:40:04.938Z,2.50
2023-04-30T09:43:10.317Z,2.50
2023-04-30T09:46:18.403Z,2.33
2023-04-30T09:49:23.952Z,2.83
2023-04-30T09:52:29.606Z,2.83
2023-04-30T09:55:35.255Z,3.03
2023-04-30T09:58:41.570Z,2.92
2023-04-30T10:01:49.812Z,2.92
2023-04-30T10:04:57.680Z,3.03
2023-04-30T10:08:03.285Z,2.30
2023-04-30T10:11:09.377Z,2.83
2023-04-30T10:14:15.405Z,2.88
2023-04-30T10:17:24.326Z,3.10
2023-04-30T10:20:30.818Z,6.53
2023-04-30T10:23:36.182Z,2.88
2023-04-30T10:26:41.729Z,13.32
2023-04-30T10:29:48.074Z,3.45
2023-04-30T10:33:01.393Z,2.50
2023-04-30T10:36:09.403Z,3.20
2023-04-30T10:39:15.192Z,2.65
2023-04-30T10:42:20.708Z,5.70
2023-04-30T10:45:38.262Z,2.00
2023-04-30T10:48:49.168Z,3.38
2023-04-30T10:51:55.433Z,2.13
2023-04-30T10:55:01.813Z,1.92
2023-04-30T10:58:26.461Z,1.98
2023-04-30T11:01:32.836Z,4.63
2023-04-30T11:05:01.244Z,1.95
2023-04-30T11:08:08.997Z,1.70
2023-04-30T11:11:15.570Z,2.10
2023-04-30T11:14:23.880Z,2.08
2023-04-30T11:17:30.526Z,2.25
2023-04-30T11:20:43.008Z,2.10
2023-04-30T11:23:52.325Z,2.45
2023-04-30T11:27:07.686Z,2.30
2023-04-30T11:30:15.532Z,2.47
2023-04-30T11:36:30.203Z,2.20
2023-04-30T11:39:38.590Z,2.00
2023-04-30T11:42:46.492Z,2.22
2023-04-30T11:46:02.263Z,1.80
2023-04-30T11:49:08.069Z,1.80
2023-04-30T11:52:16.153Z,2.38
2023-04-30T11:55:22.436Z,63.70
2023-04-30T11:58:29.385Z,3.22
2023-04-30T12:01:34.984Z,3.00
2023-04-30T12:04:41.023Z,1.98
2023-04-30T12:07:53.241Z,2.17
2023-04-30T12:10:58.776Z,2.00
2023-04-30T12:14:05.905Z,1.88
2023-04-30T12:17:11.307Z,1.90
2023-04-30T12:20:19.511Z,2.17
2023-04-30T12:23:27.853Z,1.80
2023-04-30T12:26:40.606Z,2.03
2023-04-30T12:29:48.964Z,2.00
2023-04-30T12:35:59.818Z,2.10
2023-04-30T12:39:16.358Z,2.22
2023-04-30T12:42:22.279Z,2.35
2023-04-30T12:45:42.612Z,2.78
2023-04-30T12:48:48.138Z,2.53
2023-04-30T12:51:53.508Z,2.20
2023-04-30T12:55:17.492Z,2.53
2023-04-30T12:58:22.751Z,2.20
2023-04-30T13:01:28.230Z,2.28
2023-04-30T13:04:33.790Z,2.53
2023-04-30T13:07:42.865Z,3.05
2023-04-30T13:10:52.188Z,2.67
2023-04-30T13:13:58.122Z,2.35
2023-04-30T13:17:06.040Z,2.50
2023-04-30T13:20:12.919Z,2.55
2023-04-30T13:23:18.547Z,3.30
2023-04-30T13:26:26.838Z,2.85
2023-04-30T13:29:32.371Z,3.35
2023-04-30T13:32:37.725Z,1.92
2023-04-30T13:35:43.156Z,2.47
2023-04-30T13:38:48.661Z,2.63
2023-04-30T13:41:56.888Z,2.60
2023-04-30T13:45:02.061Z,2.60
2023-04-30T13:48:10.140Z,2.95
2023-04-30T13:51:15.336Z,2.83
2023-04-30T13:54:20.770Z,2.30
2023-04-30T13:57:30.387Z,2.95
2023-04-30T14:00:35.940Z,3.15
2023-04-30T14:03:41.479Z,2.50
2023-04-30T14:06:48.009Z,3.15
2023-04-30T14:09:53.573Z,3.50
2023-04-30T14:13:02.076Z,2.53
2023-04-30T14:16:07.813Z,3.20
2023-04-30T14:19:13.066Z,2.78
2023-04-30T14:22:18.631Z,2.50
2023-04-30T14:25:24.376Z,2.90
2023-04-30T14:28:32.434Z,2.47
2023-04-30T14:31:37.789Z,2.45
2023-04-30T14:34:43.288Z,3.38
2023-04-30T14:37:48.593Z,2.85
2023-04-30T14:40:53.801Z,2.60
2023-04-30T14:44:01.968Z,2.78
2023-04-30T14:47:07.705Z,2.67
2023-04-30T14:50:13.272Z,2.63
2023-04-30T14:53:19.008Z,3.35
2023-04-30T14:56:24.341Z,3.38
2023-04-30T14:59:33.844Z,3.08
2023-04-30T15:02:39.563Z,2.90
2023-04-30T15:05:45.080Z,2.70
2023-04-30T15:08:50.386Z,2.60
2023-04-30T15:11:56.277Z,3.78
2023-04-30T15:15:05.055Z,2.90
2023-04-30T15:18:12.074Z,3.30
2023-04-30T15:21:17.439Z,3.20
2023-04-30T15:24:22.954Z,3.00
2023-04-30T15:27:28.388Z,3.08
2023-04-30T15:30:36.705Z,3.17
2023-04-30T15:36:47.916Z,3.53
2023-04-30T15:39:53.457Z,3.25
2023-04-30T15:42:58.907Z,3.47
2023-04-30T15:46:07.059Z,3.53
2023-04-30T15:49:12.458Z,4.53
2023-04-30T15:52:18.086Z,3.38
2023-04-30T15:55:23.611Z,3.90
2023-04-30T15:58:29.061Z,3.83
2023-04-30T16:01:37.568Z,3.47
2023-04-30T16:04:44.831Z,3.70
2023-04-30T16:07:50.344Z,4.30
2023-04-30T16:10:55.828Z,4.30
2023-04-30T16:14:02.092Z,4.88
2023-04-30T16:17:10.064Z,4.68
2023-04-30T16:20:16.704Z,4.25
2023-04-30T16:23:22.810Z,4.80
2023-04-30T16:26:28.253Z,4.43
2023-04-30T16:29:33.454Z,5.20
2023-04-30T16:32:41.420Z,5.32
2023-04-30T16:35:47.079Z,5.25
2023-04-30T16:38:52.436Z,5.00
2023-04-30T16:41:58.220Z,5.13
2023-04-30T16:45:03.415Z,5.00
2023-04-30T16:48:14.781Z,5.18
2023-04-30T16:54:25.029Z,5.70
2023-04-30T16:57:30.450Z,5.75
2023-04-30T17:00:36.262Z,6.22
2023-04-30T17:03:44.718Z,5.68
2023-04-30T17:06:50.502Z,6.18
2023-04-30T17:09:56.303Z,6.55
2023-04-30T17:13:04.511Z,6.60
2023-04-30T17:16:09.898Z,5.75
2023-04-30T17:19:18.304Z,5.57
2023-04-30T17:22:23.867Z,5.50
2023-04-30T17:25:30.072Z,6.40
2023-04-30T17:28:35.853Z,6.32
2023-04-30T17:31:41.455Z,6.40
2023-04-30T17:34:49.601Z,5.97
2023-04-30T17:37:54.968Z,6.35
2023-04-30T17:41:00.922Z,5.97
2023-04-30T17:44:06.280Z,6.18
2023-04-30T17:47:13.219Z,5.85
2023-04-30T17:53:27.780Z,7.30
2023-04-30T17:56:33.627Z,7.57
2023-04-30T17:59:39.331Z,7.07
2023-04-30T18:02:45.121Z,6.28
2023-04-30T18:05:50.698Z,6.38
2023-04-30T18:09:01.707Z,6.70
2023-04-30T18:12:07.224Z,6.55
2023-04-30T18:15:14.048Z,6.43
2023-04-30T18:18:19.359Z,6.45
2023-04-30T18:21:25.058Z,7.35
2023-04-30T18:24:33.152Z,7.13
2023-04-30T18:27:38.805Z,7.30
2023-04-30T18:30:45.694Z,7.93
2023-04-30T18:33:51.128Z,6.90
2023-04-30T18:36:57.030Z,7.40
2023-04-30T18:40:05.314Z,6.90
2023-04-30T18:43:11.225Z,6.50
2023-04-30T18:46:16.667Z,7.43
2023-04-30T18:49:22.334Z,6.88
2023-04-30T18:52:27.749Z,7.30
2023-04-30T18:55:36.066Z,7.53
2023-04-30T18:58:41.344Z,7.65
2023-04-30T19:01:47.159Z,7.95
2023-04-30T19:04:52.676Z,7.72
2023-04-30T19:07:58.209Z,7.38
2023-04-30T19:11:06.376Z,7.57
2023-04-30T19:14:12.295Z,7.55
2023-04-30T19:17:19.408Z,7.07
2023-04-30T19:20:26.389Z,7.10
2023-04-30T19:23:32.735Z,6.95
2023-04-30T19:26:42.760Z,6.53
2023-04-30T19:29:48.706Z,5.55
2023-04-30T19:32:54.063Z,6.40
2023-04-30T19:35:59.744Z,5.22
2023-04-30T19:39:06.499Z,6.63
2023-04-30T19:42:14.379Z,6.88
2023-04-30T19:45:20.140Z,6.78
2023-04-30T19:48:26.333Z,6.38
2023-04-30T19:51:31.717Z,7.00
2023-04-30T19:54:37.254Z,6.78
2023-04-30T19:57:45.341Z,7.53
2023-04-30T20:00:50.723Z,7.97
2023-04-30T20:03:56.226Z,7.30
2023-04-30T20:07:01.994Z,7.53
2023-04-30T20:10:10.010Z,6.45
2023-04-30T20:13:18.383Z,7.00
2023-04-30T20:16:23.954Z,6.70
2023-04-30T20:19:29.420Z,6.78
2023-04-30T20:22:34.998Z,7.00
2023-04-30T20:25:40.236Z,5.97
2023-04-30T20:28:48.373Z,5.53
2023-04-30T20:31:54.003Z,5.53
2023-04-30T20:34:59.385Z,4.90
2023-04-30T20:38:04.928Z,5.55
2023-04-30T20:41:10.474Z,5.35
2023-04-30T20:44:18.568Z,5.25
2023-04-30T20:47:24.175Z,5.60
2023-04-30T20:50:29.956Z,4.88
2023-04-30T20:53:35.070Z,4.97
2023-04-30T20:56:40.970Z,5.30
2023-04-30T20:59:48.919Z,4.82
2023-04-30T21:02:55.330Z,4.38
2023-04-30T21:06:00.987Z,4.38
2023-04-30T21:09:07.507Z,4.25
2023-04-30T21:12:13.312Z,3.88
2023-04-30T21:15:21.411Z,4.50
2023-04-30T21:18:27.335Z,4.88
2023-04-30T21:21:32.950Z,4.68
2023-04-30T21:24:40.108Z,4.40
2023-04-30T21:27:45.841Z,4.05
2023-04-30T21:30:53.966Z,3.80
2023-04-30T21:33:59.728Z,3.88
2023-04-30T21:37:05.153Z,3.90
2023-04-30T21:40:11.660Z,3.72
2023-04-30T21:43:18.140Z,3.95
2023-04-30T21:46:25.948Z,3.92
2023-04-30T21:49:31.562Z,3.58
2023-04-30T21:52:37.160Z,4.05
2023-04-30T21:55:42.534Z,3.95
2023-04-30T21:58:48.251Z,4.18
2023-04-30T22:01:56.152Z,4.32
2023-04-30T22:05:02.833Z,4.10
2023-04-30T22:08:09.583Z,4.07
2023-04-30T22:11:15.065Z,4.57
2023-04-30T22:14:20.904Z,4.32
2023-04-30T22:17:29.172Z,4.13
2023-04-30T22:23:39.724Z,5.00
2023-04-30T22:26:45.425Z,5.53
2023-04-30T22:29:52.239Z,4.95
2023-04-30T22:33:01.669Z,4.65
2023-04-30T22:36:08.141Z,5.32
2023-04-30T22:39:13.970Z,5.80
2023-04-30T22:42:19.478Z,6.75
2023-04-30T22:45:24.875Z,6.22
2023-04-30T22:48:32.730Z,6.05
2023-04-30T22:51:38.192Z,6.78
2023-04-30T22:54:44.702Z,6.35
2023-04-30T22:57:50.360Z,5.47
2023-04-30T23:00:56.359Z,5.63
2023-04-30T23:04:05.033Z,5.53
2023-04-30T23:07:10.426Z,6.10
2023-04-30T23:10:15.816Z,7.57
2023-04-30T23:13:21.896Z,5.55
2023-04-30T23:16:27.379Z,5.18
2023-04-30T23:19:35.626Z,5.15
2023-04-30T23:22:41.130Z,5.18
2023-04-30T23:25:46.725Z,5.50
2023-04-30T23:28:52.050Z,5.78
2023-04-30T23:31:57.710Z,5.43
2023-04-30T23:35:07.222Z,5.25
2023-04-30T23:38:12.691Z,5.70
2023-04-30T23:41:18.310Z,5.45
2023-04-30T23:44:23.987Z,4.93
2023-04-30T23:47:30.830Z,5.05
2023-04-30T23:50:39.049Z,5.32
2023-04-30T23:53:44.499Z,5.68
2023-04-30T23:56:49.975Z,4.88
2023-04-30T23:59:55.883Z,4.53
